Time;durP1;ratioP1;P1;durP2;ratioP2;P2;SDS_P1;SDS_P2;PMS_P1;PMS_P2;Temp;Humidity;BMP_temperature;BMP_pressure;BME280_temperature;BME280_humidity;BME280_pressure;Samples;Min_cycle;Max_cycle;Signal;HPM_P1;HPM_P2
2022/03/09 00:00:09;;;;;;;19.52;7.68;;;;;;;-5.77;73.34;99236.53;3210704;23;20774;-89
2022/03/09 00:01:45;;;;;;;22.15;8.48;;;;;;;-5.69;74.12;99238.66;3209666;23;20028;-89
2022/03/09 00:03:00;;;;;;;16.58;7.75;;;;;;;-5.68;73.95;99239.53;3210442;23;20368;-90
2022/03/09 00:04:16;;;;;;;24.60;8.40;;;;;;;-5.68;73.90;99242.09;3209590;23;20100;-90
2022/03/09 00:05:32;;;;;;;20.58;7.20;;;;;;;-5.58;74.38;99241.75;3208917;23;20017;-88
2022/03/09 00:06:48;;;;;;;20.65;8.07;;;;;;;-5.60;74.03;99243.34;3210975;23;20027;-89
2022/03/09 00:08:03;;;;;;;21.48;7.80;;;;;;;-5.64;74.47;99236.34;3208420;23;20751;-89
2022/03/09 00:09:19;;;;;;;19.95;8.05;;;;;;;-5.56;74.20;99242.72;3208524;23;20020;-89
2022/03/09 00:10:35;;;;;;;22.92;8.23;;;;;;;-5.56;74.26;99247.81;3208895;23;20024;-90
2022/03/09 00:11:50;;;;;;;20.90;8.20;;;;;;;-5.57;73.72;99240.06;3209233;23;20682;-90
2022/03/09 00:13:06;;;;;;;18.60;8.00;;;;;;;-5.64;73.14;99248.22;3209643;23;20028;-89
2022/03/09 00:14:21;;;;;;;22.23;8.45;;;;;;;-5.71;73.68;99247.03;3209913;23;20020;-90
2022/03/09 00:15:37;;;;;;;23.15;8.02;;;;;;;-5.79;73.34;99245.78;3209433;23;20020;-91
2022/03/09 00:16:53;;;;;;;20.40;8.30;;;;;;;-5.92;73.14;99249.41;3208504;23;20020;-90
2022/03/09 00:18:08;;;;;;;17.08;6.95;;;;;;;-5.97;73.80;99252.56;3208748;23;20044;-90
2022/03/09 00:19:24;;;;;;;23.88;8.40;;;;;;;-6.00;74.19;99244.75;3209349;23;20025;-90
2022/03/09 00:20:40;;;;;;;26.85;8.27;;;;;;;-6.03;74.27;99248.84;3209098;23;20021;-89
2022/03/09 00:21:55;;;;;;;19.25;7.72;;;;;;;-6.11;74.20;99241.72;3209150;23;20599;-90
2022/03/09 00:23:11;;;;;;;21.67;8.23;;;;;;;-6.07;73.75;99244.41;3209139;23;20016;-90
2022/03/09 00:24:27;;;;;;;23.67;7.70;;;;;;;-6.10;73.78;99240.91;3208645;23;20017;-90
2022/03/09 00:25:42;;;;;;;17.83;7.20;;;;;;;-6.07;73.35;99241.84;3209231;23;20035;-90
2022/03/09 00:26:59;;;;;;;21.00;7.97;;;;;;;-6.11;73.34;99243.38;3208653;23;20024;-89
2022/03/09 00:28:15;;;;;;;23.77;7.90;;;;;;;-6.12;73.38;99237.41;3208629;23;20020;-90
2022/03/09 00:29:30;;;;;;;19.98;8.18;;;;;;;-6.11;72.99;99240.81;3208654;23;20025;-89
2022/03/09 00:30:46;;;;;;;19.35;7.93;;;;;;;-6.13;72.85;99242.41;3208288;23;20551;-89
2022/03/09 00:32:02;;;;;;;21.88;8.63;;;;;;;-6.18;72.82;99243.88;3208965;23;20087;-90
2022/03/09 00:33:18;;;;;;;18.20;8.18;;;;;;;-6.27;73.20;99245.13;3208670;23;20023;-90
2022/03/09 00:34:33;;;;;;;18.15;7.70;;;;;;;-6.29;73.48;99244.16;3208063;23;20017;-89
2022/03/09 00:35:49;;;;;;;20.27;8.70;;;;;;;-6.28;73.40;99247.63;3207944;23;20515;-90
2022/03/09 00:37:05;;;;;;;20.10;8.07;;;;;;;-6.28;73.36;99240.81;3208216;23;20155;-89
2022/03/09 00:38:20;;;;;;;21.42;8.05;;;;;;;-6.32;72.89;99244.03;3208086;23;20023;-90
2022/03/09 00:39:36;;;;;;;18.30;7.60;;;;;;;-6.31;72.95;99242.31;3207696;23;20025;-90
2022/03/09 00:40:52;;;;;;;24.35;8.82;;;;;;;-6.35;73.08;99245.53;3207630;23;20028;-89
2022/03/09 00:42:07;;;;;;;18.80;7.55;;;;;;;-6.40;73.06;99246.16;3207554;23;20017;-89
2022/03/09 00:43:24;;;;;;;18.42;7.32;;;;;;;-6.46;73.73;99240.72;3207696;23;20039;-90
2022/03/09 00:44:39;;;;;;;18.30;7.55;;;;;;;-6.49;74.23;99250.75;3209149;23;20027;-89
2022/03/09 00:45:56;;;;;;;17.73;7.93;;;;;;;-6.51;74.41;99244.72;3208625;23;20023;-90
2022/03/09 00:47:12;;;;;;;18.10;7.15;;;;;;;-6.38;75.64;99244.56;3208746;23;20423;-90
2022/03/09 00:48:27;;;;;;;15.52;7.47;;;;;;;-6.36;74.84;99248.88;3192853;23;20096;-90
2022/03/09 00:49:43;;;;;;;17.83;7.75;;;;;;;-6.34;74.65;99249.81;3198947;23;20027;-88
2022/03/09 00:50:59;;;;;;;19.17;7.72;;;;;;;-6.31;73.54;99252.53;3208500;23;20459;-91
2022/03/09 00:52:14;;;;;;;17.88;7.35;;;;;;;-6.38;72.88;99252.22;3208290;23;20351;-89
2022/03/09 00:53:30;;;;;;;18.88;7.90;;;;;;;-6.40;73.51;99258.91;3208741;23;20051;-89
2022/03/09 00:54:47;;;;;;;19.58;8.45;;;;;;;-6.42;74.27;99263.06;3208016;23;20041;-89
2022/03/09 00:56:03;;;;;;;20.85;8.27;;;;;;;-6.45;73.70;99262.88;3208600;23;20021;-89
2022/03/09 00:57:20;;;;;;;22.73;8.77;;;;;;;-6.47;73.88;99263.59;3208169;23;20020;-90
2022/03/09 00:58:35;;;;;;;20.80;8.77;;;;;;;-6.48;74.26;99269.50;3209069;23;20102;-89
2022/03/09 00:59:51;;;;;;;23.25;9.48;;;;;;;-6.52;74.56;99271.84;3208628;23;20090;-89
2022/03/09 01:01:08;;;;;;;25.13;9.68;;;;;;;-6.55;74.50;99275.94;3208487;23;20016;-89
2022/03/09 01:02:24;;;;;;;23.70;8.65;;;;;;;-6.60;74.35;99277.31;3208658;23;20021;-90
2022/03/09 01:03:39;;;;;;;19.33;9.05;;;;;;;-6.66;74.62;99272.78;3208459;23;20407;-90
2022/03/09 01:04:55;;;;;;;21.55;8.77;;;;;;;-6.63;74.89;99272.06;3208460;23;20044;-89
2022/03/09 01:06:11;;;;;;;22.00;8.70;;;;;;;-6.65;75.16;99260.94;3208281;23;20075;-90
2022/03/09 01:07:26;;;;;;;19.92;8.23;;;;;;;-6.61;74.79;99268.84;3207700;23;20024;-89
2022/03/09 01:08:42;;;;;;;21.90;8.10;;;;;;;-6.58;74.72;99266.44;3208400;23;20022;-90
2022/03/09 01:09:58;;;;;;;19.80;8.38;;;;;;;-6.62;75.02;99261.09;3208867;23;20036;-89
2022/03/09 01:11:13;;;;;;;17.58;8.05;;;;;;;-6.64;74.65;99262.69;3193413;23;20028;-90
2022/03/09 01:12:29;;;;;;;19.67;8.07;;;;;;;-6.61;74.75;99265.38;3201523;23;20024;-89
2022/03/09 01:13:45;;;;;;;22.70;8.02;;;;;;;-6.55;74.50;99266.59;3211759;23;20400;-90
2022/03/09 01:15:01;;;;;;;21.25;8.10;;;;;;;-6.51;74.36;99270.19;3212002;23;20017;-90
2022/03/09 01:16:17;;;;;;;19.52;8.30;;;;;;;-6.44;74.33;99272.25;3212313;23;20017;-91
2022/03/09 01:17:33;;;;;;;20.33;8.35;;;;;;;-6.40;73.98;99268.22;3222870;23;20031;-90
2022/03/09 01:18:48;;;;;;;23.58;8.55;;;;;;;-6.42;74.51;99270.69;3222655;23;20017;-89
2022/03/09 01:20:04;;;;;;;25.40;8.00;;;;;;;-6.41;74.08;99267.34;3223237;23;20278;-89
2022/03/09 01:21:20;;;;;;;18.55;8.35;;;;;;;-6.41;73.80;99264.81;3222899;23;20009;-90
2022/03/09 01:22:36;;;;;;;21.27;8.40;;;;;;;-6.43;73.02;99263.81;3220383;23;20024;-89
2022/03/09 01:23:51;;;;;;;24.83;8.48;;;;;;;-6.51;73.16;99267.66;3217332;23;20020;-89
2022/03/09 01:25:08;;;;;;;19.88;8.82;;;;;;;-6.52;73.00;99269.31;3216396;23;20016;-89
2022/03/09 01:26:24;;;;;;;22.17;9.55;;;;;;;-6.57;73.43;99265.63;3220637;23;20051;-89
2022/03/09 01:27:39;;;;;;;20.33;9.45;;;;;;;-6.69;73.89;99265.88;3219863;23;20024;-89
2022/03/09 01:28:55;;;;;;;18.95;8.43;;;;;;;-6.79;74.48;99271.25;3218612;23;20028;-89
2022/03/09 01:30:11;;;;;;;22.42;9.45;;;;;;;-6.90;74.67;99267.22;3217319;23;20004;-90
2022/03/09 01:31:26;;;;;;;24.77;9.15;;;;;;;-6.97;74.95;99272.00;3209816;23;20021;-89
2022/03/09 01:32:42;;;;;;;24.15;9.13;;;;;;;-6.98;74.47;99265.16;3209421;23;20028;-89
2022/03/09 01:33:57;;;;;;;23.70;9.20;;;;;;;-6.90;74.49;99270.66;3210261;23;20021;-88
2022/03/09 01:35:13;;;;;;;22.65;9.65;;;;;;;-6.92;75.25;99268.81;3209747;23;20055;-89
2022/03/09 01:36:29;;;;;;;23.75;9.70;;;;;;;-6.89;75.48;99263.88;3208997;23;20027;-89
2022/03/09 01:37:46;;;;;;;22.33;9.23;;;;;;;-6.89;75.24;99266.44;3209389;23;20545;-89
2022/03/09 01:39:01;;;;;;;24.75;8.73;;;;;;;-6.89;75.38;99261.34;3209259;23;20038;-89
2022/03/09 01:40:17;;;;;;;21.23;9.43;;;;;;;-6.90;75.86;99259.59;3209670;23;20048;-90
2022/03/09 01:41:33;;;;;;;21.70;9.38;;;;;;;-6.88;76.01;99261.44;3209352;23;20353;-89
2022/03/09 01:42:48;;;;;;;21.63;8.38;;;;;;;-6.85;76.54;99264.16;3209234;23;20325;-89
2022/03/09 01:44:10;;;;;;;20.83;8.23;;;;;;;-6.86;77.16;99267.50;3209221;23;20100;-91
2022/03/09 01:45:26;;;;;;;20.02;8.43;;;;;;;-6.84;76.79;99262.50;3208672;23;20070;-90
2022/03/09 01:46:43;;;;;;;21.67;8.00;;;;;;;-6.84;77.00;99263.34;3208823;23;20023;-89
2022/03/09 01:47:58;;;;;;;22.80;8.55;;;;;;;-6.85;77.33;99259.06;3208842;23;20043;-89
2022/03/09 01:49:14;;;;;;;18.95;8.23;;;;;;;-6.85;77.46;99263.25;3209492;23;20021;-90
2022/03/09 01:50:30;;;;;;;23.45;8.68;;;;;;;-6.83;76.77;99262.56;3209326;23;20025;-90
2022/03/09 01:51:49;;;;;;;22.20;8.02;;;;;;;-6.85;76.72;99259.06;3209804;23;20115;-90
2022/03/09 01:53:05;;;;;;;20.63;7.78;;;;;;;-6.84;76.84;99254.84;3210153;23;20021;-90
2022/03/09 01:54:21;;;;;;;19.50;7.63;;;;;;;-6.82;77.05;99259.22;3210701;23;20676;-89
2022/03/09 01:55:37;;;;;;;25.48;8.20;;;;;;;-6.79;76.56;99260.16;3211089;23;20028;-90
2022/03/09 01:56:53;;;;;;;23.73;8.68;;;;;;;-6.69;76.24;99260.78;3209730;23;20020;-90
2022/03/09 01:58:08;;;;;;;21.05;8.52;;;;;;;-6.63;75.97;99266.97;3209487;23;20544;-89
2022/03/09 01:59:25;;;;;;;19.80;8.45;;;;;;;-6.60;75.99;99260.41;3209383;23;20044;-89
2022/03/09 02:00:40;;;;;;;21.27;8.82;;;;;;;-6.57;75.59;99257.09;3209227;23;20048;-89
2022/03/09 02:01:57;;;;;;;20.42;7.95;;;;;;;-6.54;75.68;99257.31;3209271;23;20322;-89
2022/03/09 02:03:12;;;;;;;31.63;10.23;;;;;;;-6.50;76.42;99255.75;3208966;23;20482;-89
2022/03/09 02:04:28;;;;;;;32.45;12.07;;;;;;;-6.48;78.07;99249.97;3209031;23;20016;-89
2022/03/09 02:05:43;;;;;;;30.75;11.18;;;;;;;-6.46;77.87;99253.47;3209299;23;20058;-90
2022/03/09 02:06:59;;;;;;;33.55;12.07;;;;;;;-6.43;76.94;99252.75;3208370;23;20031;-90
2022/03/09 02:10:00;;;;;;;29.30;9.68;;;;;;;-6.39;76.45;99249.56;3158182;23;20135;-89
2022/03/09 02:11:16;;;;;;;30.23;10.90;;;;;;;-6.37;76.53;99255.63;3176197;23;20135;-90
2022/03/09 02:12:31;;;;;;;27.52;10.05;;;;;;;-6.36;76.83;99248.88;3209433;23;20466;-90
2022/03/09 02:13:47;;;;;;;27.85;10.70;;;;;;;-6.38;76.96;99249.66;3209588;23;20016;-90
2022/03/09 02:15:04;;;;;;;27.77;11.20;;;;;;;-6.37;76.70;99247.97;3192914;23;20087;-90
2022/03/09 02:16:19;;;;;;;33.83;11.50;;;;;;;-6.38;76.83;99249.66;3200813;23;20070;-88
2022/03/09 02:17:35;;;;;;;32.72;10.27;;;;;;;-6.31;76.93;99247.44;3209527;23;20067;-90
2022/03/09 02:18:50;;;;;;;26.58;10.05;;;;;;;-6.28;76.56;99250.16;3209865;23;20023;-88
2022/03/09 02:20:07;;;;;;;27.38;10.15;;;;;;;-6.23;76.70;99256.34;3210392;23;20021;-91
2022/03/09 02:21:26;;;;;;;34.97;11.80;;;;;;;-6.21;76.83;99252.22;3209116;23;20103;-89
2022/03/09 02:22:43;;;;;;;25.27;11.07;;;;;;;-6.18;78.01;99254.91;3209969;23;20021;-88
2022/03/09 02:23:58;;;;;;;32.90;11.18;;;;;;;-6.17;77.49;99256.66;3209426;23;20440;-90
2022/03/09 02:25:15;;;;;;;30.42;10.82;;;;;;;-6.15;77.75;99256.75;3210418;23;20306;-90
2022/03/09 02:26:31;;;;;;;25.73;9.73;;;;;;;-6.09;77.65;99259.59;3193150;23;20027;-89
2022/03/09 02:27:47;;;;;;;22.17;9.45;;;;;;;-6.05;77.15;99255.56;3198763;23;20024;-89
2022/03/09 02:29:03;;;;;;;28.55;9.93;;;;;;;-6.00;76.45;99257.50;3208856;23;20016;-89
2022/03/09 02:30:19;;;;;;;25.27;9.75;;;;;;;-5.94;76.12;99259.50;3208677;23;20025;-89
2022/03/09 02:31:35;;;;;;;23.55;9.38;;;;;;;-5.88;75.87;99262.34;3208955;23;20570;-89
2022/03/09 02:32:50;;;;;;;22.10;9.50;;;;;;;-5.83;75.63;99262.59;3209819;23;20464;-89
2022/03/09 02:34:06;;;;;;;24.13;9.32;;;;;;;-5.81;76.41;99261.00;3210292;23;20032;-89
2022/03/09 02:35:21;;;;;;;23.75;9.60;;;;;;;-5.79;76.05;99261.97;3210108;23;20124;-89
2022/03/09 02:36:37;;;;;;;24.45;9.82;;;;;;;-5.72;76.90;99260.59;3208998;23;20020;-89
2022/03/09 02:37:52;;;;;;;23.10;10.43;;;;;;;-5.70;77.35;99259.00;3209492;23;20017;-89
2022/03/09 02:39:08;;;;;;;23.38;10.00;;;;;;;-5.68;77.84;99259.94;3209083;23;20024;-88
2022/03/09 02:40:24;;;;;;;29.73;10.82;;;;;;;-5.67;78.28;99265.09;3208635;23;20024;-89
2022/03/09 02:41:39;;;;;;;26.13;10.63;;;;;;;-5.65;78.16;99259.25;3192426;23;20582;-89
2022/03/09 02:42:55;;;;;;;27.45;10.77;;;;;;;-5.66;78.49;99258.34;3198829;23;20065;-88
2022/03/09 02:44:10;;;;;;;27.73;11.32;;;;;;;-5.67;78.20;99261.69;3208882;23;20016;-89
2022/03/09 02:45:26;;;;;;;28.95;10.20;;;;;;;-5.60;77.31;99261.19;3209065;23;20020;-89
2022/03/09 02:46:41;;;;;;;22.60;9.40;;;;;;;-5.57;77.44;99258.81;3208517;23;20023;-89
2022/03/09 02:47:57;;;;;;;23.95;9.52;;;;;;;-5.43;76.98;99258.63;3209131;23;20017;-90
2022/03/09 02:49:13;;;;;;;22.17;9.05;;;;;;;-5.31;76.57;99254.13;3209412;23;20454;-89
2022/03/09 02:50:28;;;;;;;26.75;9.82;;;;;;;-5.31;76.52;99259.22;3209228;23;20023;-88
2022/03/09 02:51:44;;;;;;;28.52;10.27;;;;;;;-5.34;76.58;99259.06;3208773;23;20116;-88
2022/03/09 02:52:59;;;;;;;21.45;9.23;;;;;;;-5.37;76.37;99256.34;3209159;23;20027;-89
2022/03/09 02:54:15;;;;;;;25.02;8.80;;;;;;;-5.43;76.29;99262.03;3209444;23;20020;-89
2022/03/09 02:55:31;;;;;;;21.08;9.18;;;;;;;-5.45;76.39;99260.19;3210346;23;20017;-88
2022/03/09 02:56:46;;;;;;;22.85;9.45;;;;;;;-5.49;76.76;99253.19;3209109;23;20032;-89
2022/03/09 02:58:02;;;;;;;19.10;9.18;;;;;;;-5.51;76.41;99245.50;3209010;23;20415;-89
2022/03/09 02:59:18;;;;;;;23.45;9.38;;;;;;;-5.54;76.69;99253.84;3209366;23;20025;-90
2022/03/09 03:00:33;;;;;;;23.77;9.13;;;;;;;-5.57;75.92;99252.81;3208685;23;20027;-89
2022/03/09 03:01:49;;;;;;;23.48;8.88;;;;;;;-5.60;75.82;99258.63;3208406;23;20047;-90
2022/03/09 03:03:04;;;;;;;25.10;9.27;;;;;;;-5.64;75.93;99254.19;3207740;23;20017;-89
2022/03/09 03:04:20;;;;;;;22.48;8.98;;;;;;;-5.68;76.05;99252.28;3208303;23;20443;-90
2022/03/09 03:05:36;;;;;;;22.27;9.13;;;;;;;-5.73;76.43;99254.63;3208307;23;20021;-89
2022/03/09 03:06:51;;;;;;;21.98;9.75;;;;;;;-5.75;76.42;99256.22;3208749;23;20043;-88
2022/03/09 03:08:07;;;;;;;26.00;9.20;;;;;;;-5.77;76.86;99255.28;3208670;23;20020;-89
2022/03/09 03:09:23;;;;;;;23.65;9.85;;;;;;;-5.75;76.73;99250.22;3208862;23;20020;-89
2022/03/09 03:10:38;;;;;;;25.67;10.18;;;;;;;-5.76;77.45;99253.56;3208944;23;20017;-89
2022/03/09 03:11:55;;;;;;;20.95;8.30;;;;;;;-5.73;77.32;99254.63;3209313;23;20068;-89
2022/03/09 03:13:11;;;;;;;22.42;9.27;;;;;;;-5.62;76.51;99250.03;3209451;23;20025;-89
2022/03/09 03:14:26;;;;;;;22.77;7.63;;;;;;;-5.56;76.52;99252.91;3208772;23;20017;-89
2022/03/09 03:15:42;;;;;;;19.77;8.05;;;;;;;-5.45;75.97;99247.44;3192354;23;20028;-89
2022/03/09 03:16:58;;;;;;;18.85;8.10;;;;;;;-5.49;76.12;99243.88;3198475;23;20028;-89
2022/03/09 03:18:13;;;;;;;23.50;8.57;;;;;;;-5.49;75.70;99246.44;3208583;23;20031;-89
2022/03/09 03:19:29;;;;;;;19.33;8.52;;;;;;;-5.49;75.75;99243.00;3208804;23;20020;-89
2022/03/09 03:20:44;;;;;;;21.42;8.75;;;;;;;-5.50;75.35;99243.78;3208580;23;20020;-89
2022/03/09 03:22:00;;;;;;;17.73;7.28;;;;;;;-5.58;75.58;99244.31;3209504;23;20025;-89
2022/03/09 03:23:16;;;;;;;20.25;8.02;;;;;;;-5.62;75.88;99241.53;3208731;23;20779;-89
2022/03/09 03:24:32;;;;;;;18.65;7.82;;;;;;;-5.70;76.04;99241.16;3208803;23;20027;-88
2022/03/09 03:25:47;;;;;;;27.20;8.60;;;;;;;-5.78;75.49;99238.22;3208325;23;20017;-88
2022/03/09 03:27:03;;;;;;;22.90;8.20;;;;;;;-5.86;75.61;99237.84;3208636;23;20020;-89
2022/03/09 03:28:19;;;;;;;23.95;8.20;;;;;;;-5.98;75.09;99234.66;3208611;23;20016;-91
2022/03/09 03:29:35;;;;;;;18.42;8.13;;;;;;;-6.10;74.97;99234.91;3208847;23;20029;-89
2022/03/09 03:30:51;;;;;;;19.45;7.55;;;;;;;-6.20;75.22;99240.38;3209068;23;20024;-89
2022/03/09 03:32:07;;;;;;;24.13;8.73;;;;;;;-6.26;75.20;99236.69;3209504;23;20348;-89
2022/03/09 03:33:23;;;;;;;19.05;8.07;;;;;;;-6.30;75.54;99236.44;3209540;23;20062;-90
2022/03/09 03:34:38;;;;;;;21.45;8.60;;;;;;;-6.35;75.13;99241.31;3209539;23;20043;-89
2022/03/09 03:35:54;;;;;;;28.90;8.52;;;;;;;-6.38;75.05;99243.69;3209258;23;20025;-88
2022/03/09 03:37:09;;;;;;;21.67;8.85;;;;;;;-6.38;74.70;99242.03;3208178;23;20118;-89
2022/03/09 03:38:27;;;;;;;22.48;9.10;;;;;;;-6.36;74.70;99241.22;3208146;23;20067;-89
2022/03/09 03:39:42;;;;;;;20.63;8.57;;;;;;;-6.39;74.43;99242.81;3208595;23;20028;-89
2022/03/09 03:40:58;;;;;;;21.73;8.35;;;;;;;-6.43;74.42;99243.44;3208537;23;20040;-88
2022/03/09 03:42:13;;;;;;;16.23;7.55;;;;;;;-6.45;74.13;99244.16;3207890;23;20086;-88
2022/03/09 03:43:29;;;;;;;22.08;9.02;;;;;;;-6.48;74.30;99242.31;3207511;23;20047;-89
2022/03/09 03:44:44;;;;;;;19.50;7.93;;;;;;;-6.50;74.02;99251.56;3207981;23;20017;-89
2022/03/09 03:46:00;;;;;;;17.17;7.72;;;;;;;-6.53;74.13;99251.41;3207964;23;20031;-89
2022/03/09 03:47:16;;;;;;;20.60;7.47;;;;;;;-6.64;74.31;99253.34;3207949;23;20020;-88
2022/03/09 03:48:31;;;;;;;22.90;9.18;;;;;;;-6.80;74.82;99256.75;3208173;23;20337;-89
2022/03/09 03:49:47;;;;;;;23.15;8.40;;;;;;;-6.85;75.07;99259.06;3208175;23;20051;-91
2022/03/09 03:51:03;;;;;;;18.05;7.93;;;;;;;-6.89;74.79;99256.25;3208274;23;20027;-89
2022/03/09 03:52:18;;;;;;;19.55;7.63;;;;;;;-6.91;74.87;99258.72;3208105;23;20040;-89
2022/03/09 03:53:34;;;;;;;19.77;8.45;;;;;;;-6.90;74.74;99260.47;3208699;23;20020;-88
2022/03/09 03:54:49;;;;;;;18.40;8.10;;;;;;;-6.89;74.55;99261.34;3209210;23;20024;-89
2022/03/09 03:56:05;;;;;;;18.13;7.63;;;;;;;-6.90;74.61;99259.59;3209582;23;20027;-88
2022/03/09 03:57:21;;;;;;;22.40;8.20;;;;;;;-6.90;74.51;99263.03;3209139;23;20104;-89
2022/03/09 03:58:36;;;;;;;17.17;8.02;;;;;;;-6.93;74.92;99254.34;3192061;23;20512;-89
2022/03/09 03:59:52;;;;;;;21.83;8.07;;;;;;;-7.01;74.86;99262.41;3198749;23;20013;-90
2022/03/09 04:01:08;;;;;;;24.00;8.18;;;;;;;-7.03;75.27;99253.81;3208649;23;20013;-89
2022/03/09 04:02:23;;;;;;;16.63;7.78;;;;;;;-7.04;75.86;99259.72;3208157;23;20020;-88
2022/03/09 04:03:39;;;;;;;19.02;8.00;;;;;;;-7.10;76.11;99265.34;3208179;23;20052;-89
2022/03/09 04:04:54;;;;;;;21.08;8.13;;;;;;;-7.19;77.32;99251.22;3208427;23;20043;-88
2022/03/09 04:06:10;;;;;;;22.65;8.43;;;;;;;-7.20;77.76;99259.66;3208735;23;20020;-89
2022/03/09 04:07:26;;;;;;;22.08;8.57;;;;;;;-7.21;78.25;99257.91;3208571;23;20147;-89
2022/03/09 04:08:41;;;;;;;17.08;7.25;;;;;;;-7.25;77.99;99251.75;3208297;23;20016;-88
2022/03/09 04:09:57;;;;;;;14.13;6.82;;;;;;;-7.20;78.00;99263.06;3209095;23;20012;-87
2022/03/09 04:11:13;;;;;;;19.38;7.80;;;;;;;-7.19;78.27;99261.41;3208765;23;20016;-89
2022/03/09 04:12:28;;;;;;;19.00;6.95;;;;;;;-7.19;78.58;99259.75;3209252;23;20036;-89
2022/03/09 04:13:44;;;;;;;21.95;7.95;;;;;;;-7.20;78.17;99262.19;3209252;23;20016;-89
2022/03/09 04:15:00;;;;;;;23.30;8.30;;;;;;;-7.24;77.60;99262.03;3209209;23;20020;-89
2022/03/09 04:16:16;;;;;;;18.27;7.00;;;;;;;-7.28;77.36;99251.59;3207037;23;20016;-90
2022/03/09 04:17:41;;;;;;;19.60;7.97;;;;;;;-7.34;77.07;99251.22;3208386;23;20020;-90
2022/03/09 04:18:57;;;;;;;20.98;8.15;;;;;;;-7.35;77.22;99255.47;3208759;23;20024;-89
2022/03/09 04:20:14;;;;;;;20.92;7.90;;;;;;;-7.37;76.93;99251.94;3209625;23;20439;-88
2022/03/09 04:21:29;;;;;;;19.98;7.40;;;;;;;-7.43;77.75;99256.69;3210547;23;20451;-90
2022/03/09 04:22:45;;;;;;;20.75;8.15;;;;;;;-7.44;78.30;99254.94;3211297;23;20334;-89
2022/03/09 04:24:01;;;;;;;17.02;7.05;;;;;;;-7.47;78.96;99250.56;3195428;23;20492;-91
2022/03/09 04:25:16;;;;;;;17.83;7.53;;;;;;;-7.46;78.70;99251.41;3201619;23;20020;-89
2022/03/09 04:26:32;;;;;;;19.38;7.35;;;;;;;-7.44;78.14;99249.84;3218546;23;20147;-89
2022/03/09 04:27:48;;;;;;;19.20;7.57;;;;;;;-7.43;77.79;99249.03;3223052;23;20029;-91
2022/03/09 04:29:03;;;;;;;19.38;7.97;;;;;;;-7.40;78.02;99256.88;3223092;23;20024;-90
2022/03/09 04:30:19;;;;;;;15.63;6.95;;;;;;;-7.52;78.27;99255.38;3222772;23;20050;-89
2022/03/09 04:31:34;;;;;;;18.42;7.32;;;;;;;-7.58;77.94;99256.69;3222598;23;20030;-91
2022/03/09 04:32:50;;;;;;;19.80;8.27;;;;;;;-7.61;78.29;99249.75;3214419;23;20021;-90
2022/03/09 04:34:06;;;;;;;14.88;6.38;;;;;;;-7.62;78.49;99263.25;3214395;23;20024;-90
2022/03/09 04:35:21;;;;;;;16.60;6.53;;;;;;;-7.62;78.29;99258.19;3217299;23;20040;-90
2022/03/09 04:36:37;;;;;;;19.08;6.88;;;;;;;-7.63;77.94;99258.97;3216944;23;20032;-89
2022/03/09 04:37:53;;;;;;;16.77;7.40;;;;;;;-7.60;77.83;99258.28;3215814;23;20071;-88
2022/03/09 04:39:09;;;;;;;22.45;7.32;;;;;;;-7.69;77.96;99256.06;3217097;23;20005;-88
2022/03/09 04:40:24;;;;;;;15.60;7.15;;;;;;;-7.74;78.58;99257.47;3211111;23;20024;-89
2022/03/09 04:41:40;;;;;;;22.20;7.53;;;;;;;-7.78;79.51;99256.41;3209012;23;20020;-88
2022/03/09 04:42:55;;;;;;;19.48;7.78;;;;;;;-7.76;79.26;99259.91;3209272;23;20036;-88
2022/03/09 04:44:11;;;;;;;18.90;7.85;;;;;;;-7.76;78.86;99259.91;3208239;23;20664;-87
2022/03/09 04:45:27;;;;;;;15.30;7.30;;;;;;;-7.72;78.30;99253.34;3208669;23;20039;-87
2022/03/09 04:46:42;;;;;;;19.08;7.57;;;;;;;-7.70;78.28;99254.31;3209175;23;20455;-88
2022/03/09 04:47:58;;;;;;;18.17;7.80;;;;;;;-7.57;77.80;99254.22;3208679;23;20067;-88
2022/03/09 04:49:13;;;;;;;17.73;7.30;;;;;;;-7.53;77.67;99255.28;3209743;23;20078;-87
2022/03/09 04:50:29;;;;;;;21.95;8.25;;;;;;;-7.53;77.59;99260.38;3209887;23;20024;-88
2022/03/09 04:51:44;;;;;;;17.00;8.50;;;;;;;-7.53;77.55;99255.28;3210539;23;20019;-89
2022/03/09 04:53:00;;;;;;;22.92;8.40;;;;;;;-7.52;77.38;99252.84;3210066;23;20039;-88
2022/03/09 04:54:16;;;;;;;22.17;8.38;;;;;;;-7.50;77.12;99247.81;3209632;23;20036;-88
2022/03/09 04:55:31;;;;;;;19.08;7.43;;;;;;;-7.49;77.24;99251.25;3209433;23;20039;-89
2022/03/09 04:56:47;;;;;;;22.08;8.65;;;;;;;-7.48;76.94;99251.31;3210430;23;20082;-88
2022/03/09 04:58:02;;;;;;;25.55;8.35;;;;;;;-7.43;76.41;99251.59;3210199;23;20479;-88
2022/03/09 04:59:18;;;;;;;18.00;7.95;;;;;;;-7.45;76.29;99251.53;3209972;23;20342;-87
2022/03/09 05:00:33;;;;;;;18.58;7.97;;;;;;;-7.46;76.11;99265.03;3209278;23;20396;-87
2022/03/09 05:01:49;;;;;;;21.88;8.02;;;;;;;-7.52;76.30;99260.47;3209853;23;20510;-88
2022/03/09 05:03:05;;;;;;;21.63;7.47;;;;;;;-7.55;76.98;99259.41;3209212;23;20021;-87
2022/03/09 05:04:20;;;;;;;23.08;7.70;;;;;;;-7.58;77.42;99259.25;3209445;23;20016;-87
2022/03/09 05:05:36;;;;;;;18.67;8.35;;;;;;;-7.64;77.85;99267.38;3209430;23;20220;-87
2022/03/09 05:06:51;;;;;;;20.83;7.47;;;;;;;-7.70;78.22;99267.91;3209262;23;20024;-87
2022/03/09 05:08:09;;;;;;;20.08;8.70;;;;;;;-7.70;78.10;99269.56;3208500;23;20718;-87
2022/03/09 05:09:25;;;;;;;20.08;8.35;;;;;;;-7.67;77.94;99267.22;3208886;23;20051;-88
2022/03/09 05:10:40;;;;;;;17.27;7.88;;;;;;;-7.70;77.92;99269.56;3208878;23;20388;-88
2022/03/09 05:11:56;;;;;;;21.40;8.10;;;;;;;-7.70;77.76;99267.00;3208778;23;20017;-88
2022/03/09 05:13:11;;;;;;;20.58;7.85;;;;;;;-7.68;77.62;99271.41;3208700;23;20063;-87
2022/03/09 05:14:28;;;;;;;20.27;8.05;;;;;;;-7.71;77.54;99266.16;3208918;23;20016;-87
2022/03/09 05:15:43;;;;;;;18.73;7.90;;;;;;;-7.71;77.39;99267.81;3208827;23;20444;-87
2022/03/09 05:16:59;;;;;;;22.15;8.50;;;;;;;-7.71;77.09;99267.81;3208975;23;20043;-88
2022/03/09 05:18:14;;;;;;;17.83;6.57;;;;;;;-7.76;77.48;99267.53;3208382;23;20127;-88
2022/03/09 05:19:30;;;;;;;21.15;7.78;;;;;;;-7.89;77.93;99265.94;3209102;23;20585;-88
2022/03/09 05:20:46;;;;;;;18.50;7.47;;;;;;;-7.89;77.67;99265.94;3208855;23;20090;-88
2022/03/09 05:22:03;;;;;;;21.55;7.20;;;;;;;-7.98;77.71;99270.47;3209043;23;20335;-87
2022/03/09 05:23:18;;;;;;;19.55;7.35;;;;;;;-8.00;77.91;99272.97;3208465;23;20066;-87
2022/03/09 05:24:34;;;;;;;20.42;7.82;;;;;;;-7.95;78.47;99279.19;3208127;23;20069;-87
2022/03/09 05:25:50;;;;;;;21.02;7.65;;;;;;;-7.96;78.88;99279.09;3208355;23;20027;-87
2022/03/09 05:27:05;;;;;;;21.20;7.22;;;;;;;-8.00;79.06;99279.69;3208690;23;20021;-88
2022/03/09 05:28:21;;;;;;;20.30;7.85;;;;;;;-8.05;79.87;99279.41;3208069;23;20028;-87
2022/03/09 05:29:36;;;;;;;19.60;7.32;;;;;;;-8.07;80.91;99282.66;3208819;23;20090;-87
2022/03/09 05:30:52;;;;;;;18.52;8.02;;;;;;;-8.11;81.48;99279.91;3208665;23;20736;-87
2022/03/09 05:32:08;;;;;;;19.90;8.50;;;;;;;-8.03;81.51;99276.97;3209148;23;20444;-88
2022/03/09 05:33:23;;;;;;;19.73;7.75;;;;;;;-7.93;81.82;99284.38;3209231;23;20020;-88
2022/03/09 05:34:39;;;;;;;16.15;7.72;;;;;;;-7.87;82.20;99274.53;3208998;23;20025;-87
2022/03/09 05:35:54;;;;;;;18.98;7.15;;;;;;;-7.82;82.22;99278.25;3209192;23;20087;-90
2022/03/09 05:37:10;;;;;;;20.45;8.05;;;;;;;-7.79;81.97;99277.53;3208775;23;20017;-88
2022/03/09 05:38:28;;;;;;;20.60;7.13;;;;;;;-7.77;80.70;99277.63;3208269;23;20460;-88
2022/03/09 05:39:44;;;;;;;19.83;7.63;;;;;;;-7.75;80.33;99278.59;3208731;23;20020;-87
2022/03/09 05:41:00;;;;;;;18.48;8.05;;;;;;;-7.72;79.81;99283.84;3208673;23;20027;-87
2022/03/09 05:42:15;;;;;;;18.35;8.25;;;;;;;-7.71;79.35;99280.53;3208832;23;20062;-88
2022/03/09 05:43:31;;;;;;;16.75;7.50;;;;;;;-7.75;79.56;99284.56;3209133;23;20020;-88
2022/03/09 05:44:47;;;;;;;18.48;7.63;;;;;;;-7.73;79.48;99283.00;3208541;23;20074;-87
2022/03/09 05:46:02;;;;;;;18.50;7.80;;;;;;;-7.73;79.44;99289.72;3192759;23;20345;-85
2022/03/09 05:47:18;;;;;;;20.27;7.80;;;;;;;-7.73;79.36;99280.44;3198978;23;20024;-85
2022/03/09 05:48:33;;;;;;;20.00;7.97;;;;;;;-7.67;78.89;99285.03;3209176;23;20024;-85
2022/03/09 05:49:49;;;;;;;18.60;7.45;;;;;;;-7.68;79.13;99288.34;3209049;23;20017;-85
2022/03/09 05:51:05;;;;;;;20.60;7.43;;;;;;;-7.71;79.14;99283.97;3209174;23;20067;-85
2022/03/09 05:52:20;;;;;;;25.48;7.65;;;;;;;-7.76;79.95;99287.00;3208792;23;20082;-85
2022/03/09 05:53:36;;;;;;;17.40;7.63;;;;;;;-7.83;80.77;99295.94;3208128;23;20476;-86